Time;durP1;ratioP1;P1;durP2;ratioP2;P2;SDS_P1;SDS_P2;PMS_P1;PMS_P2;Temp;Humidity;BMP_temperature;BMP_pressure;BME280_temperature;BME280_humidity;BME280_pressure;Samples;Min_cycle;Max_cycle;Signal;HPM_P1;HPM_P2
2023/09/23 00:02:15;;;;;;;0.30;0.30;;;;;;;;;;4930119;29;20063;-66
2023/09/23 00:04:41;;;;;;;0.40;0.40;;;;;;;;;;4932302;29;20073;-66
2023/09/23 00:07:09;;;;;;;0.40;0.40;;;;;;;;;;4928792;29;20540;-66
2023/09/23 00:09:36;;;;;;;0.40;0.40;;;;;;;;;;4929604;29;20032;-66
2023/09/23 00:12:01;;;;;;;0.40;0.40;;;;;;;;;;4930361;29;20032;-65
2023/09/23 00:14:28;;;;;;;0.40;0.40;;;;;;;;;;4927898;29;20034;-66
2023/09/23 00:16:54;;;;;;;0.40;0.40;;;;;;;;;;4928286;29;20473;-66
2023/09/23 00:19:19;;;;;;;0.40;0.40;;;;;;;;;;4928337;29;20034;-66
2023/09/23 00:21:45;;;;;;;0.40;0.40;;;;;;;;;;4944494;28;20028;-66
2023/09/23 00:24:10;;;;;;;0.30;0.30;;;;;;;;;;4931135;29;20154;-66
2023/09/23 00:26:36;;;;;;;0.40;0.40;;;;;;;;;;4942947;28;20114;-66
2023/09/23 00:29:01;;;;;;;0.30;0.30;;;;;;;;;;4930050;28;20047;-66
2023/09/23 00:31:29;;;;;;;0.30;0.30;;;;;;;;;;4931394;29;20123;-66
2023/09/23 00:33:54;;;;;;;0.40;0.40;;;;;;;;;;4930891;29;20413;-65
2023/09/23 00:36:22;;;;;;;0.40;0.40;;;;;;;;;;4943723;28;20378;-65
2023/09/23 00:38:47;;;;;;;0.40;0.40;;;;;;;;;;4943661;28;20062;-65
2023/09/23 00:41:13;;;;;;;0.32;0.32;;;;;;;;;;4958641;28;20126;-65
2023/09/23 00:43:38;;;;;;;0.40;0.40;;;;;;;;;;4958159;28;20126;-66
2023/09/23 00:46:04;;;;;;;0.40;0.40;;;;;;;;;;4942399;28;20065;-65
2023/09/23 00:48:36;;;;;;;0.40;0.40;;;;;;;;;;4927968;29;20030;-65
2023/09/23 00:51:03;;;;;;;0.30;0.30;;;;;;;;;;4943265;28;20126;-65
2023/09/23 00:53:29;;;;;;;0.40;0.40;;;;;;;;;;4957422;28;20126;-65
2023/09/23 00:55:55;;;;;;;0.40;0.40;;;;;;;;;;4927883;29;20061;-66
2023/09/23 00:58:22;;;;;;;0.40;0.40;;;;;;;;;;4928502;29;20118;-65
2023/09/23 01:00:48;;;;;;;0.40;0.40;;;;;;;;;;4928177;29;20119;-66
2023/09/23 01:03:23;;;;;;;0.40;0.40;;;;;;;;;;4941495;23;20062;-59
2023/09/23 01:05:59;;;;;;;0.50;0.50;;;;;;;;;;4976954;28;20957;-60
2023/09/23 01:08:25;;;;;;;0.40;0.40;;;;;;;;;;4948650;28;20031;-59
2023/09/23 01:10:50;;;;;;;0.40;0.40;;;;;;;;;;4946853;28;20038;-60
2023/09/23 01:13:23;;;;;;;0.43;0.43;;;;;;;;;;4946441;28;20105;-59
2023/09/23 01:15:49;;;;;;;0.40;0.40;;;;;;;;;;4946429;28;20562;-60
2023/09/23 01:18:15;;;;;;;0.40;0.40;;;;;;;;;;4977761;28;20042;-60
2023/09/23 01:20:44;;;;;;;0.40;0.40;;;;;;;;;;4947308;28;20146;-60
2023/09/23 01:23:10;;;;;;;0.40;0.40;;;;;;;;;;4962968;28;20378;-61
2023/09/23 01:25:36;;;;;;;0.40;0.40;;;;;;;;;;4949262;28;20764;-59
2023/09/23 01:28:04;;;;;;;0.40;0.40;;;;;;;;;;4977221;28;20036;-60
2023/09/23 01:30:29;;;;;;;0.40;0.40;;;;;;;;;;4947157;28;20096;-59
2023/09/23 01:32:56;;;;;;;0.40;0.40;;;;;;;;;;4948306;28;20027;-60
2023/09/23 01:35:22;;;;;;;0.40;0.40;;;;;;;;;;4945490;28;20127;-63
2023/09/23 01:37:48;;;;;;;0.50;0.50;;;;;;;;;;4946023;28;20109;-59
2023/09/23 01:40:17;;;;;;;0.40;0.40;;;;;;;;;;4946528;28;20027;-59
2023/09/23 01:42:52;;;;;;;0.40;0.40;;;;;;;;;;4962172;28;20548;-61
2023/09/23 01:45:19;;;;;;;0.40;0.40;;;;;;;;;;4943778;28;20034;-60
2023/09/23 01:47:44;;;;;;;0.50;0.50;;;;;;;;;;4946103;28;20060;-59
2023/09/23 01:50:10;;;;;;;0.40;0.40;;;;;;;;;;4944381;28;20049;-59
2023/09/23 01:52:36;;;;;;;0.40;0.40;;;;;;;;;;4947735;28;20043;-59
2023/09/23 01:55:04;;;;;;;0.40;0.40;;;;;;;;;;4944745;28;20046;-59
2023/09/23 01:57:30;;;;;;;0.40;0.40;;;;;;;;;;4975551;28;20038;-58
2023/09/23 01:59:56;;;;;;;0.40;0.40;;;;;;;;;;4965023;28;20042;-59
2023/09/23 02:02:21;;;;;;;0.40;0.40;;;;;;;;;;4947061;28;20035;-60
2023/09/23 02:04:47;;;;;;;0.50;0.50;;;;;;;;;;4977414;28;20134;-59
2023/09/23 02:07:13;;;;;;;0.50;0.50;;;;;;;;;;4946781;28;20750;-59
2023/09/23 02:09:39;;;;;;;0.40;0.40;;;;;;;;;;4958670;28;20038;-60
2023/09/23 02:12:04;;;;;;;0.40;0.40;;;;;;;;;;4961843;28;20035;-59
2023/09/23 02:14:30;;;;;;;0.47;0.47;;;;;;;;;;4946100;28;20044;-59
2023/09/23 02:16:55;;;;;;;0.50;0.50;;;;;;;;;;4943974;28;20035;-61
2023/09/23 02:19:21;;;;;;;0.47;0.47;;;;;;;;;;4977580;28;20039;-60
2023/09/23 02:21:47;;;;;;;0.50;0.50;;;;;;;;;;4945075;28;20369;-59
2023/09/23 02:24:12;;;;;;;0.50;0.50;;;;;;;;;;4946827;28;20031;-59
2023/09/23 02:26:38;;;;;;;0.45;0.45;;;;;;;;;;4948190;28;20042;-59
2023/09/23 02:29:04;;;;;;;0.40;0.40;;;;;;;;;;4946757;28;20448;-60
2023/09/23 02:31:31;;;;;;;0.50;0.50;;;;;;;;;;4962600;28;20051;-60
2023/09/23 02:33:57;;;;;;;0.50;0.50;;;;;;;;;;4945540;28;20397;-61
2023/09/23 02:36:22;;;;;;;0.47;0.47;;;;;;;;;;4960081;28;20039;-59
2023/09/23 02:38:48;;;;;;;0.50;0.50;;;;;;;;;;4942798;28;20035;-60
2023/09/23 02:41:13;;;;;;;0.40;0.40;;;;;;;;;;4948333;28;20034;-61
2023/09/23 02:43:40;;;;;;;0.40;0.40;;;;;;;;;;4979131;28;20023;-60
2023/09/23 02:46:06;;;;;;;0.40;0.40;;;;;;;;;;4950022;28;20042;-59
2023/09/23 02:48:33;;;;;;;0.50;0.50;;;;;;;;;;4952052;28;20030;-60
2023/09/23 02:50:58;;;;;;;0.50;0.50;;;;;;;;;;4951238;28;20789;-60
2023/09/23 02:53:24;;;;;;;0.40;0.40;;;;;;;;;;4945245;28;20027;-60
2023/09/23 02:55:59;;;;;;;0.40;0.40;;;;;;;;;;4948886;28;20121;-61
2023/09/23 02:58:24;;;;;;;0.40;0.40;;;;;;;;;;4950651;28;20773;-59
2023/09/23 03:00:57;;;;;;;0.40;0.40;;;;;;;;;;4947881;28;20038;-61
2023/09/23 03:03:23;;;;;;;0.40;0.40;;;;;;;;;;4949276;28;20031;-60
2023/09/23 03:05:54;;;;;;;0.45;0.45;;;;;;;;;;4952087;28;20374;-60
2023/09/23 03:08:23;;;;;;;0.40;0.40;;;;;;;;;;4949268;28;20078;-60
2023/09/23 03:10:51;;;;;;;0.40;0.40;;;;;;;;;;4949831;28;20039;-59
2023/09/23 03:13:17;;;;;;;0.50;0.50;;;;;;;;;;4965578;28;20047;-59
2023/09/23 03:16:28;;;;;;;0.50;0.50;;;;;;;;;;4950310;28;20039;-59
2023/09/23 03:18:36;;;;;;;0.50;0.50;;;;;;;;;;4943142;28;20039;-61
2023/09/23 03:21:03;;;;;;;0.50;0.50;;;;;;;;;;4964648;28;20038;-60
2023/09/23 03:23:29;;;;;;;0.50;0.50;;;;;;;;;;4944876;28;20042;-58
2023/09/23 03:25:56;;;;;;;0.50;0.50;;;;;;;;;;4947492;28;20031;-60
2023/09/23 03:28:21;;;;;;;0.50;0.50;;;;;;;;;;4951560;28;20804;-60
2023/09/23 03:30:50;;;;;;;0.45;0.45;;;;;;;;;;4950658;28;20031;-59
2023/09/23 03:33:18;;;;;;;0.50;0.50;;;;;;;;;;4962659;28;20153;-60
2023/09/23 03:35:44;;;;;;;0.50;0.50;;;;;;;;;;4967257;28;20039;-60
2023/09/23 03:38:10;;;;;;;0.50;0.50;;;;;;;;;;4963993;28;20035;-60
2023/09/23 03:40:38;;;;;;;0.50;0.50;;;;;;;;;;4950282;28;20050;-61
2023/09/23 03:43:03;;;;;;;0.55;0.55;;;;;;;;;;4959517;28;20118;-59
2023/09/23 03:45:32;;;;;;;0.50;0.50;;;;;;;;;;4944916;28;20293;-60
2023/09/23 03:47:58;;;;;;;0.50;0.50;;;;;;;;;;4964621;28;20081;-60
2023/09/23 03:50:24;;;;;;;0.60;0.60;;;;;;;;;;4962027;28;20031;-62
2023/09/23 03:52:51;;;;;;;0.50;0.50;;;;;;;;;;4947901;28;20051;-59
2023/09/23 03:55:18;;;;;;;0.50;0.50;;;;;;;;;;4946618;28;20094;-60
2023/09/23 03:57:44;;;;;;;0.60;0.60;;;;;;;;;;4962118;28;20042;-60
2023/09/23 04:00:16;;;;;;;0.60;0.60;;;;;;;;;;4944380;28;20504;-60
2023/09/23 04:02:42;;;;;;;0.57;0.57;;;;;;;;;;4947946;28;20039;-59
2023/09/23 04:05:08;;;;;;;0.60;0.60;;;;;;;;;;4957995;28;20481;-60
2023/09/23 04:07:33;;;;;;;0.57;0.57;;;;;;;;;;4947362;28;20031;-59
2023/09/23 04:09:58;;;;;;;0.60;0.60;;;;;;;;;;4950130;28;20070;-61
2023/09/23 04:12:23;;;;;;;0.60;0.60;;;;;;;;;;4948407;28;20106;-61
2023/09/23 04:14:51;;;;;;;0.60;0.60;;;;;;;;;;4948117;28;20363;-59
2023/09/23 04:17:17;;;;;;;0.50;0.50;;;;;;;;;;4944338;28;20434;-59
2023/09/23 04:19:42;;;;;;;0.50;0.50;;;;;;;;;;4951285;28;20033;-59
2023/09/23 04:22:07;;;;;;;0.60;0.60;;;;;;;;;;4961412;28;20090;-61
2023/09/23 04:24:33;;;;;;;0.60;0.60;;;;;;;;;;4949185;28;20093;-61
2023/09/23 04:26:59;;;;;;;0.60;0.60;;;;;;;;;;4952347;28;20459;-59
2023/09/23 04:29:25;;;;;;;0.60;0.60;;;;;;;;;;4948311;28;20027;-60
2023/09/23 04:31:50;;;;;;;0.60;0.60;;;;;;;;;;4947380;28;20031;-61
2023/09/23 04:34:17;;;;;;;0.60;0.60;;;;;;;;;;4948329;28;20031;-59
2023/09/23 04:36:42;;;;;;;0.70;0.70;;;;;;;;;;4947650;28;20130;-60
2023/09/23 04:39:08;;;;;;;0.60;0.60;;;;;;;;;;4943793;28;20106;-60
2023/09/23 04:41:33;;;;;;;0.60;0.60;;;;;;;;;;4946691;28;20050;-61
2023/09/23 04:43:59;;;;;;;0.60;0.60;;;;;;;;;;4949808;28;20367;-62
2023/09/23 04:46:24;;;;;;;0.60;0.60;;;;;;;;;;4949999;28;20066;-60
2023/09/23 04:48:49;;;;;;;0.60;0.60;;;;;;;;;;4949090;28;20054;-61
2023/09/23 04:51:17;;;;;;;0.60;0.60;;;;;;;;;;4963516;28;20031;-62
2023/09/23 04:53:42;;;;;;;0.60;0.60;;;;;;;;;;4948772;28;20071;-59
2023/09/23 04:56:16;;;;;;;0.50;0.50;;;;;;;;;;4946711;28;20066;-59
2023/09/23 04:58:42;;;;;;;0.60;0.60;;;;;;;;;;4961305;28;20064;-61
2023/09/23 05:01:08;;;;;;;0.60;0.60;;;;;;;;;;4947749;28;20035;-61
2023/09/23 05:03:36;;;;;;;0.60;0.60;;;;;;;;;;4962328;28;20039;-60
2023/09/23 05:06:01;;;;;;;0.50;0.50;;;;;;;;;;4944851;28;20215;-60
2023/09/23 05:08:27;;;;;;;0.60;0.60;;;;;;;;;;4952122;28;20061;-62
2023/09/23 05:10:52;;;;;;;0.70;0.70;;;;;;;;;;4942682;28;20027;-60
2023/09/23 05:13:17;;;;;;;0.60;0.60;;;;;;;;;;4943081;28;20027;-60
2023/09/23 05:15:43;;;;;;;0.60;0.60;;;;;;;;;;4947043;28;20076;-61
2023/09/23 05:18:08;;;;;;;0.65;0.65;;;;;;;;;;4963178;28;20120;-60
2023/09/23 05:20:34;;;;;;;0.60;0.60;;;;;;;;;;4947810;28;20470;-59
2023/09/23 05:23:02;;;;;;;0.60;0.60;;;;;;;;;;4947734;28;20143;-60
2023/09/23 05:25:28;;;;;;;0.70;0.70;;;;;;;;;;4962219;28;20045;-62
2023/09/23 05:27:54;;;;;;;0.50;0.50;;;;;;;;;;4947079;28;20131;-61
2023/09/23 05:30:21;;;;;;;0.50;0.50;;;;;;;;;;4945452;28;20283;-60
2023/09/23 05:32:47;;;;;;;0.60;0.60;;;;;;;;;;4949312;28;20038;-61
2023/09/23 05:35:12;;;;;;;0.70;0.70;;;;;;;;;;4942834;28;20051;-60
2023/09/23 05:37:39;;;;;;;0.60;0.60;;;;;;;;;;4947486;28;20033;-61
2023/09/23 05:40:08;;;;;;;0.70;0.70;;;;;;;;;;4946677;28;20043;-60
2023/09/23 05:42:34;;;;;;;0.60;0.60;;;;;;;;;;4963364;28;20085;-60
2023/09/23 05:44:59;;;;;;;0.60;0.60;;;;;;;;;;4946785;28;21584;-61
2023/09/23 05:47:24;;;;;;;0.60;0.60;;;;;;;;;;4946320;28;20061;-60
2023/09/23 05:49:50;;;;;;;0.60;0.60;;;;;;;;;;4949505;28;20131;-60
2023/09/23 05:52:15;;;;;;;0.60;0.60;;;;;;;;;;4945805;28;20038;-61
2023/09/23 05:54:41;;;;;;;0.60;0.60;;;;;;;;;;4948553;28;20531;-60
2023/09/23 05:57:07;;;;;;;0.60;0.60;;;;;;;;;;4962165;28;20441;-61
2023/09/23 05:59:32;;;;;;;0.50;0.50;;;;;;;;;;4945500;28;20027;-60
2023/09/23 06:01:57;;;;;;;0.50;0.50;;;;;;;;;;4946744;28;20038;-61
2023/09/23 06:04:22;;;;;;;0.60;0.60;;;;;;;;;;4977455;28;20629;-60
2023/09/23 06:06:48;;;;;;;0.60;0.60;;;;;;;;;;4948308;28;20152;-60
2023/09/23 06:09:15;;;;;;;0.60;0.60;;;;;;;;;;4947219;28;20154;-61
2023/09/23 06:11:43;;;;;;;0.57;0.57;;;;;;;;;;4948846;28;20114;-59
2023/09/23 06:14:09;;;;;;;0.50;0.50;;;;;;;;;;4947097;28;20149;-60
2023/09/23 06:16:35;;;;;;;0.50;0.50;;;;;;;;;;4947317;28;20023;-59
2023/09/23 06:19:00;;;;;;;0.60;0.60;;;;;;;;;;4962328;28;20059;-60
2023/09/23 06:21:26;;;;;;;0.60;0.60;;;;;;;;;;4952732;28;20608;-60
2023/09/23 06:23:51;;;;;;;0.57;0.57;;;;;;;;;;4947993;28;20031;-59
2023/09/23 06:26:16;;;;;;;0.40;0.40;;;;;;;;;;4949322;28;20039;-60
2023/09/23 06:28:42;;;;;;;0.50;0.50;;;;;;;;;;4951081;28;20441;-60
2023/09/23 06:31:08;;;;;;;0.40;0.40;;;;;;;;;;4949186;28;20035;-60
2023/09/23 06:33:34;;;;;;;0.50;0.50;;;;;;;;;;4949944;28;20074;-61
2023/09/23 06:36:03;;;;;;;0.50;0.50;;;;;;;;;;4950498;28;20827;-59
2023/09/23 06:38:29;;;;;;;0.45;0.45;;;;;;;;;;4949273;28;20097;-60
2023/09/23 06:40:55;;;;;;;0.50;0.50;;;;;;;;;;4963608;28;20035;-59
2023/09/23 06:43:20;;;;;;;0.50;0.50;;;;;;;;;;4948834;28;20031;-59
2023/09/23 06:45:52;;;;;;;0.47;0.47;;;;;;;;;;4948491;28;20651;-60
2023/09/23 06:48:17;;;;;;;0.50;0.50;;;;;;;;;;4947066;28;20481;-59
2023/09/23 06:50:42;;;;;;;0.40;0.40;;;;;;;;;;4945794;28;20031;-61
2023/09/23 06:53:08;;;;;;;0.50;0.50;;;;;;;;;;4950792;28;20031;-61
2023/09/23 06:55:33;;;;;;;0.40;0.40;;;;;;;;;;4947296;28;20090;-61
2023/09/23 06:57:59;;;;;;;0.50;0.50;;;;;;;;;;4945541;28;20023;-59
2023/09/23 07:00:24;;;;;;;0.40;0.40;;;;;;;;;;4947362;28;20452;-60
2023/09/23 07:02:49;;;;;;;0.50;0.50;;;;;;;;;;4949352;28;20030;-59
2023/09/23 07:05:15;;;;;;;0.40;0.40;;;;;;;;;;4950432;28;20078;-61
2023/09/23 07:07:40;;;;;;;0.40;0.40;;;;;;;;;;4949482;28;20078;-60
2023/09/23 07:10:06;;;;;;;0.40;0.40;;;;;;;;;;4949216;28;20665;-62
2023/09/23 07:12:31;;;;;;;0.40;0.40;;;;;;;;;;4948538;28;20034;-60
2023/09/23 07:14:57;;;;;;;0.40;0.40;;;;;;;;;;4947181;28;20074;-60
2023/09/23 07:17:22;;;;;;;0.40;0.40;;;;;;;;;;4949852;28;20903;-60
2023/09/23 07:19:47;;;;;;;0.40;0.40;;;;;;;;;;4949628;28;20035;-59
2023/09/23 07:22:13;;;;;;;0.40;0.40;;;;;;;;;;4950022;28;20039;-59
2023/09/23 07:24:38;;;;;;;0.40;0.40;;;;;;;;;;4951426;28;20053;-59
2023/09/23 07:27:03;;;;;;;0.32;0.32;;;;;;;;;;4950469;28;20043;-60
2023/09/23 07:29:31;;;;;;;0.40;0.40;;;;;;;;;;4950287;28;20039;-60
2023/09/23 07:31:56;;;;;;;0.40;0.40;;;;;;;;;;4949604;28;20103;-59
2023/09/23 07:34:21;;;;;;;0.30;0.30;;;;;;;;;;4948357;28;20129;-59
2023/09/23 07:36:47;;;;;;;0.40;0.40;;;;;;;;;;4948260;28;20465;-60
2023/09/23 07:39:12;;;;;;;0.30;0.30;;;;;;;;;;4948071;28;20043;-60
2023/09/23 07:41:38;;;;;;;0.40;0.40;;;;;;;;;;4942344;28;20528;-60
2023/09/23 07:44:03;;;;;;;0.40;0.40;;;;;;;;;;4947054;28;20109;-60
2023/09/23 07:46:29;;;;;;;0.40;0.40;;;;;;;;;;4947867;28;20031;-60
2023/09/23 07:48:54;;;;;;;0.30;0.30;;;;;;;;;;4950105;28;20432;-62
2023/09/23 07:51:20;;;;;;;0.30;0.30;;;;;;;;;;4948591;28;20046;-60
2023/09/23 07:53:45;;;;;;;0.30;0.30;;;;;;;;;;4949452;28;20050;-59
2023/09/23 07:56:10;;;;;;;0.32;0.32;;;;;;;;;;4949017;28;20421;-61
2023/09/23 07:58:35;;;;;;;0.30;0.30;;;;;;;;;;4950568;28;20081;-60
2023/09/23 08:01:01;;;;;;;0.30;0.30;;;;;;;;;;4963631;28;20097;-60
2023/09/23 08:03:27;;;;;;;0.32;0.32;;;;;;;;;;4948600;28;20081;-61
2023/09/23 08:05:55;;;;;;;0.37;0.37;;;;;;;;;;4946347;28;20031;-60
2023/09/23 08:08:21;;;;;;;0.30;0.30;;;;;;;;;;4943182;28;20890;-60
2023/09/23 08:10:49;;;;;;;0.30;0.30;;;;;;;;;;4944010;28;20074;-60
2023/09/23 08:13:15;;;;;;;0.30;0.30;;;;;;;;;;4945835;28;20035;-60
2023/09/23 08:15:40;;;;;;;0.30;0.30;;;;;;;;;;4947835;28;20042;-59
2023/09/23 08:18:05;;;;;;;0.30;0.30;;;;;;;;;;4944847;28;20031;-60
2023/09/23 08:20:31;;;;;;;0.30;0.30;;;;;;;;;;4945241;28;20119;-62
2023/09/23 08:22:56;;;;;;;0.30;0.30;;;;;;;;;;4947974;28;20110;-60
2023/09/23 08:25:21;;;;;;;0.30;0.30;;;;;;;;;;4947912;28;20049;-61
2023/09/23 08:27:47;;;;;;;0.30;0.30;;;;;;;;;;4944733;28;20409;-59
2023/09/23 08:30:13;;;;;;;0.30;0.30;;;;;;;;;;4946966;28;20031;-59
2023/09/23 08:32:38;;;;;;;0.30;0.30;;;;;;;;;;4946511;28;20114;-59
2023/09/23 08:35:05;;;;;;;0.30;0.30;;;;;;;;;;4945428;29;20230;-60
2023/09/23 08:37:30;;;;;;;0.40;0.40;;;;;;;;;;4944427;28;20122;-59
2023/09/23 08:39:56;;;;;;;0.30;0.30;;;;;;;;;;4942075;28;20114;-60
2023/09/23 08:42:23;;;;;;;0.30;0.30;;;;;;;;;;4943896;28;20031;-60
2023/09/23 08:44:49;;;;;;;0.30;0.30;;;;;;;;;;4945257;28;20026;-60
2023/09/23 08:47:16;;;;;;;0.30;0.30;;;;;;;;;;4941836;28;20035;-60
2023/09/23 08:49:42;;;;;;;0.40;0.40;;;;;;;;;;4945013;28;20097;-61
2023/09/23 08:52:08;;;;;;;0.30;0.30;;;;;;;;;;4945340;28;20039;-61
2023/09/23 08:54:34;;;;;;;0.30;0.30;;;;;;;;;;4946960;28;20109;-60
2023/09/23 08:56:59;;;;;;;0.20;0.20;;;;;;;;;;4941614;28;20031;-61
2023/09/23 08:59:26;;;;;;;0.30;0.30;;;;;;;;;;4943882;28;20035;-60
2023/09/23 09:01:52;;;;;;;0.30;0.30;;;;;;;;;;4944481;28;20042;-60
2023/09/23 09:04:17;;;;;;;0.30;0.30;;;;;;;;;;4944857;28;20043;-62
2023/09/23 09:07:00;;;;;;;0.30;0.30;;;;;;;;;;4936811;28;20031;-60
2023/09/23 09:09:26;;;;;;;0.30;0.30;;;;;;;;;;4945584;28;20034;-61
2023/09/23 09:11:53;;;;;;;0.30;0.30;;;;;;;;;;4970379;28;20409;-61
2023/09/23 09:14:19;;;;;;;0.30;0.30;;;;;;;;;;4945312;28;20031;-59
2023/09/23 09:16:45;;;;;;;0.30;0.30;;;;;;;;;;4940764;28;20086;-58
2023/09/23 09:19:10;;;;;;;0.30;0.30;;;;;;;;;;4939941;28;20492;-60
2023/09/23 09:21:36;;;;;;;0.30;0.30;;;;;;;;;;4942703;28;20039;-62
2023/09/23 09:24:01;;;;;;;0.30;0.30;;;;;;;;;;4944776;28;20039;-61
2023/09/23 09:26:27;;;;;;;0.30;0.30;;;;;;;;;;4943979;28;20046;-59
2023/09/23 09:28:52;;;;;;;0.30;0.30;;;;;;;;;;4945477;28;20049;-59
2023/09/23 09:31:17;;;;;;;0.30;0.30;;;;;;;;;;4943683;28;20054;-60
2023/09/23 09:33:46;;;;;;;0.20;0.20;;;;;;;;;;4944311;28;20031;-61
2023/09/23 09:36:13;;;;;;;0.30;0.30;;;;;;;;;;4944561;28;20043;-58
2023/09/23 09:38:39;;;;;;;0.20;0.20;;;;;;;;;;4944640;28;20046;-58
2023/09/23 09:41:05;;;;;;;0.30;0.30;;;;;;;;;;4945098;28;20035;-59
2023/09/23 09:43:31;;;;;;;0.30;0.30;;;;;;;;;;4944453;28;20115;-59
2023/09/23 09:45:57;;;;;;;0.30;0.30;;;;;;;;;;4937479;28;20042;-59
2023/09/23 09:48:26;;;;;;;0.30;0.30;;;;;;;;;;4944554;28;20039;-59
2023/09/23 09:50:52;;;;;;;0.30;0.30;;;;;;;;;;4944226;28;20027;-59
2023/09/23 09:53:18;;;;;;;0.30;0.30;;;;;;;;;;4943732;28;20102;-60
2023/09/23 09:55:44;;;;;;;0.30;0.30;;;;;;;;;;4943843;28;20031;-60
2023/09/23 09:58:11;;;;;;;0.30;0.30;;;;;;;;;;4945538;28;20031;-61
2023/09/23 10:00:43;;;;;;;0.30;0.30;;;;;;;;;;4946195;28;20106;-59
2023/09/23 10:03:11;;;;;;;0.30;0.30;;;;;;;;;;4959995;28;20043;-59
2023/09/23 10:05:46;;;;;;;0.30;0.30;;;;;;;;;;4944870;28;20485;-59
2023/09/23 10:08:18;;;;;;;0.30;0.30;;;;;;;;;;4944080;28;20087;-62
2023/09/23 10:10:47;;;;;;;0.20;0.20;;;;;;;;;;4946333;28;20042;-59
2023/09/23 10:13:13;;;;;;;0.30;0.30;;;;;;;;;;4944839;28;20038;-59
2023/09/23 10:15:40;;;;;;;0.20;0.20;;;;;;;;;;4944075;28;20038;-60
2023/09/23 10:18:13;;;;;;;0.20;0.20;;;;;;;;;;4945840;28;20102;-60
2023/09/23 10:20:56;;;;;;;0.20;0.20;;;;;;;;;;4943686;28;20050;-59
2023/09/23 10:23:22;;;;;;;0.20;0.20;;;;;;;;;;4946483;28;20038;-59
2023/09/23 10:25:48;;;;;;;0.20;0.20;;;;;;;;;;4959238;28;20039;-59
2023/09/23 10:28:23;;;;;;;0.20;0.20;;;;;;;;;;4945307;28;20087;-59
2023/09/23 10:30:55;;;;;;;0.20;0.20;;;;;;;;;;4946006;28;20031;-59
2023/09/23 10:33:21;;;;;;;0.30;0.30;;;;;;;;;;4945550;28;20055;-59
2023/09/23 10:35:46;;;;;;;0.20;0.20;;;;;;;;;;4945374;28;20036;-60
2023/09/23 10:38:19;;;;;;;0.20;0.20;;;;;;;;;;4943687;28;20093;-59
2023/09/23 10:40:48;;;;;;;0.10;0.10;;;;;;;;;;4945607;28;20062;-59
2023/09/23 10:43:14;;;;;;;0.10;0.10;;;;;;;;;;4945156;28;20114;-59
2023/09/23 10:45:39;;;;;;;0.10;0.10;;;;;;;;;;4945128;28;20035;-59
2023/09/23 10:48:05;;;;;;;0.20;0.20;;;;;;;;;;4945366;28;20684;-58
2023/09/23 10:50:30;;;;;;;0.20;0.20;;;;;;;;;;4943810;28;20042;-59
2023/09/23 10:52:56;;;;;;;0.20;0.20;;;;;;;;;;4945883;28;20146;-59
2023/09/23 10:55:21;;;;;;;0.20;0.20;;;;;;;;;;4943947;28;20411;-58
2023/09/23 10:57:48;;;;;;;0.20;0.20;;;;;;;;;;4945476;28;20116;-60
2023/09/23 11:00:16;;;;;;;0.20;0.20;;;;;;;;;;4944198;28;20032;-58
2023/09/23 11:02:42;;;;;;;0.20;0.20;;;;;;;;;;4946249;28;20031;-58
2023/09/23 11:05:11;;;;;;;0.20;0.20;;;;;;;;;;4948418;28;20059;-59
2023/09/23 11:07:36;;;;;;;0.20;0.20;;;;;;;;;;4948824;28;20039;-59
2023/09/23 11:10:01;;;;;;;0.20;0.20;;;;;;;;;;4946779;28;20027;-59
2023/09/23 11:12:31;;;;;;;0.10;0.10;;;;;;;;;;4949580;28;20039;-59
2023/09/23 11:14:56;;;;;;;0.20;0.20;;;;;;;;;;4949185;28;20035;-58
2023/09/23 11:17:25;;;;;;;0.10;0.10;;;;;;;;;;4946881;28;20039;-59
2023/09/23 11:19:57;;;;;;;0.20;0.20;;;;;;;;;;4949778;28;20118;-57
2023/09/23 11:22:26;;;;;;;0.20;0.20;;;;;;;;;;4947512;28;20035;-58
2023/09/23 11:24:52;;;;;;;0.10;0.10;;;;;;;;;;4950518;28;20038;-59
2023/09/23 11:27:17;;;;;;;0.20;0.20;;;;;;;;;;4949150;28;20035;-58
2023/09/23 11:29:43;;;;;;;0.10;0.10;;;;;;;;;;4952333;28;20398;-57
2023/09/23 11:32:09;;;;;;;0.10;0.10;;;;;;;;;;4947510;28;20083;-58
2023/09/23 11:34:35;;;;;;;0.10;0.10;;;;;;;;;;4949824;28;20031;-58
2023/09/23 11:37:01;;;;;;;0.10;0.10;;;;;;;;;;4945373;28;20497;-60
2023/09/23 11:39:26;;;;;;;0.20;0.20;;;;;;;;;;4942957;28;20130;-59
2023/09/23 11:41:57;;;;;;;0.20;0.20;;;;;;;;;;4959879;28;20122;-59
2023/09/23 11:44:22;;;;;;;0.20;0.20;;;;;;;;;;4939119;28;20118;-58
2023/09/23 11:46:48;;;;;;;0.10;0.10;;;;;;;;;;4949775;28;20046;-59
2023/09/23 11:49:13;;;;;;;0.17;0.17;;;;;;;;;;4947549;28;20035;-59
2023/09/23 11:51:39;;;;;;;0.10;0.10;;;;;;;;;;4949977;28;20031;-58
2023/09/23 11:54:04;;;;;;;0.10;0.10;;;;;;;;;;4948720;28;20031;-59
2023/09/23 11:56:29;;;;;;;0.10;0.10;;;;;;;;;;4947694;28;20139;-59
2023/09/23 11:58:54;;;;;;;0.10;0.10;;;;;;;;;;4947584;28;20113;-59
2023/09/23 12:01:20;;;;;;;0.10;0.10;;;;;;;;;;4944907;28;20031;-59
2023/09/23 12:03:45;;;;;;;0.10;0.10;;;;;;;;;;4962480;28;20035;-60
2023/09/23 12:06:11;;;;;;;0.10;0.10;;;;;;;;;;4949159;28;20053;-61
2023/09/23 12:08:37;;;;;;;0.10;0.10;;;;;;;;;;4948802;28;20031;-59
2023/09/23 12:11:04;;;;;;;0.10;0.10;;;;;;;;;;4940378;28;20697;-60
2023/09/23 12:13:29;;;;;;;0.10;0.10;;;;;;;;;;4946380;28;20035;-60
2023/09/23 12:15:54;;;;;;;0.10;0.10;;;;;;;;;;4943232;28;20043;-59
2023/09/23 12:18:20;;;;;;;0.00;0.00;;;;;;;;;;4945784;28;20058;-60
2023/09/23 12:20:45;;;;;;;0.00;0.00;;;;;;;;;;4937045;28;20527;-60
2023/09/23 12:23:13;;;;;;;0.00;0.00;;;;;;;;;;4975769;28;20453;-62
2023/09/23 12:25:38;;;;;;;0.00;0.00;;;;;;;;;;4946619;29;20035;-58
2023/09/23 12:28:04;;;;;;;0.00;0.00;;;;;;;;;;4944922;28;20035;-61
2023/09/23 12:30:29;;;;;;;0.00;0.00;;;;;;;;;;4946075;28;20039;-58
2023/09/23 12:32:54;;;;;;;0.00;0.00;;;;;;;;;;4946929;28;20349;-59
2023/09/23 12:35:20;;;;;;;0.20;0.20;;;;;;;;;;4945263;28;20659;-60
2023/09/23 12:37:46;;;;;;;0.10;0.10;;;;;;;;;;4939547;28;20109;-62
2023/09/23 12:40:11;;;;;;;0.10;0.10;;;;;;;;;;4942671;28;20664;-61
2023/09/23 12:42:36;;;;;;;0.10;0.10;;;;;;;;;;4943386;28;20102;-59
2023/09/23 12:45:02;;;;;;;0.10;0.10;;;;;;;;;;4936396;28;20106;-60
2023/09/23 12:47:27;;;;;;;0.10;0.10;;;;;;;;;;4948155;28;20110;-59
2023/09/23 12:49:52;;;;;;;0.10;0.10;;;;;;;;;;4947962;28;20038;-60
2023/09/23 12:52:18;;;;;;;0.00;0.00;;;;;;;;;;4943322;28;20414;-60
2023/09/23 12:54:44;;;;;;;0.00;0.00;;;;;;;;;;4948515;28;20039;-59
2023/09/23 12:57:09;;;;;;;0.00;0.00;;;;;;;;;;4941781;28;20047;-60
2023/09/23 12:59:34;;;;;;;0.00;0.00;;;;;;;;;;4947737;28;22073;-58
2023/09/23 13:02:00;;;;;;;0.00;0.00;;;;;;;;;;4941979;28;20038;-60
2023/09/23 13:04:25;;;;;;;0.00;0.00;;;;;;;;;;4946170;28;20039;-61
2023/09/23 13:06:50;;;;;;;0.00;0.00;;;;;;;;;;4945957;28;20058;-58
2023/09/23 13:09:18;;;;;;;0.10;0.10;;;;;;;;;;4943320;28;20125;-61
2023/09/23 13:11:43;;;;;;;0.10;0.10;;;;;;;;;;4943573;28;20035;-59
2023/09/23 13:14:11;;;;;;;0.10;0.10;;;;;;;;;;4937654;28;20109;-59
2023/09/23 13:16:36;;;;;;;0.00;0.00;;;;;;;;;;4938671;28;20050;-60
2023/09/23 13:19:01;;;;;;;0.00;0.00;;;;;;;;;;4945138;28;20035;-58
2023/09/23 13:21:26;;;;;;;0.00;0.00;;;;;;;;;;4940695;28;20026;-59
2023/09/23 13:23:52;;;;;;;0.00;0.00;;;;;;;;;;4945046;28;20359;-61
2023/09/23 13:26:17;;;;;;;0.10;0.10;;;;;;;;;;4937370;28;20089;-59
2023/09/23 13:28:42;;;;;;;0.10;0.10;;;;;;;;;;4942106;28;20043;-58
2023/09/23 13:31:08;;;;;;;0.10;0.10;;;;;;;;;;4943787;28;20043;-61
2023/09/23 13:33:33;;;;;;;0.10;0.10;;;;;;;;;;4938310;28;20030;-58
2023/09/23 13:35:58;;;;;;;0.10;0.10;;;;;;;;;;4942988;28;20043;-60
2023/09/23 13:38:24;;;;;;;0.20;0.20;;;;;;;;;;4940572;28;20073;-60
2023/09/23 13:40:49;;;;;;;0.10;0.10;;;;;;;;;;4940725;28;20399;-59
2023/09/23 13:43:14;;;;;;;0.10;0.10;;;;;;;;;;4960474;28;20748;-59
2023/09/23 13:45:40;;;;;;;0.10;0.10;;;;;;;;;;4938870;28;20027;-59
2023/09/23 13:48:08;;;;;;;0.10;0.10;;;;;;;;;;4944298;28;20059;-58
2023/09/23 13:50:34;;;;;;;0.10;0.10;;;;;;;;;;4939100;28;20031;-58
2023/09/23 13:53:00;;;;;;;0.10;0.10;;;;;;;;;;4938984;28;20078;-58
2023/09/23 13:55:25;;;;;;;0.10;0.10;;;;;;;;;;4943381;28;20118;-58
2023/09/23 13:57:51;;;;;;;0.20;0.20;;;;;;;;;;4937610;28;20473;-58
2023/09/23 14:00:16;;;;;;;0.27;0.27;;;;;;;;;;4944546;28;20142;-59
2023/09/23 14:02:41;;;;;;;0.20;0.20;;;;;;;;;;4950172;28;20150;-59
2023/09/23 14:05:07;;;;;;;0.10;0.10;;;;;;;;;;4937725;28;21096;-59
2023/09/23 14:07:34;;;;;;;0.00;0.00;;;;;;;;;;4943550;28;20042;-60
2023/09/23 14:10:00;;;;;;;0.10;0.10;;;;;;;;;;4938887;28;20469;-58
2023/09/23 14:12:26;;;;;;;0.10;0.10;;;;;;;;;;4944779;28;20035;-62
2023/09/23 14:14:51;;;;;;;;;;;;;;;;;;4939126;28;20106;-60
2023/09/23 14:17:17;;;;;;;0.10;0.10;;;;;;;;;;4940387;28;19992;-59
2023/09/23 14:19:43;;;;;;;0.10;0.10;;;;;;;;;;4937380;28;20150;-59
2023/09/23 14:22:08;;;;;;;0.10;0.10;;;;;;;;;;4941883;28;20043;-60
2023/09/23 14:24:33;;;;;;;0.10;0.10;;;;;;;;;;4945310;28;20039;-59
2023/09/23 14:26:59;;;;;;;0.03;0.03;;;;;;;;;;4941771;28;20481;-58
2023/09/23 14:29:24;;;;;;;0.10;0.10;;;;;;;;;;4951874;28;20108;-59
2023/09/23 14:31:50;;;;;;;0.00;0.00;;;;;;;;;;4946693;28;20036;-59
2023/09/23 14:34:16;;;;;;;0.10;0.10;;;;;;;;;;4939613;28;20038;-59
2023/09/23 14:36:41;;;;;;;0.10;0.10;;;;;;;;;;4945361;28;20035;-59
2023/09/23 14:39:06;;;;;;;0.03;0.03;;;;;;;;;;4947125;28;20039;-61